createdAt,value
2023-02-15T00:01:40.634Z,82.96
2023-02-15T00:04:08.619Z,82.83
2023-02-15T00:06:35.308Z,82.85
2023-02-15T00:09:02.473Z,83.01
2023-02-15T00:11:40.782Z,82.98
2023-02-15T00:14:14.783Z,82.90
2023-02-15T00:16:43.180Z,83.01
2023-02-15T00:19:10.976Z,83.03
2023-02-15T00:21:38.982Z,83.35
2023-02-15T00:24:08.040Z,83.25
2023-02-15T00:26:34.865Z,83.40
2023-02-15T00:29:02.470Z,83.23
2023-02-15T00:31:32.749Z,83.32
2023-02-15T00:34:13.908Z,83.31
2023-02-15T00:36:40.612Z,83.11
2023-02-15T00:39:07.624Z,83.49
2023-02-15T00:41:34.795Z,83.45
2023-02-15T00:44:01.675Z,83.40
2023-02-15T00:46:28.535Z,83.54
2023-02-15T00:48:55.084Z,83.35
2023-02-15T00:51:21.568Z,83.63
2023-02-15T00:53:48.032Z,83.65
2023-02-15T00:56:15.110Z,83.55
2023-02-15T00:58:41.682Z,83.57
2023-02-15T01:01:10.671Z,83.34
2023-02-15T01:03:37.920Z,83.58
2023-02-15T01:06:05.130Z,83.52
2023-02-15T01:08:32.164Z,83.51
2023-02-15T01:11:05.121Z,83.40
2023-02-15T01:13:31.640Z,83.52
2023-02-15T01:15:58.129Z,83.54
2023-02-15T01:18:24.983Z,83.56
2023-02-15T01:20:51.478Z,83.70
2023-02-15T01:23:17.892Z,83.65
2023-02-15T01:25:44.306Z,83.65
2023-02-15T01:28:11.401Z,83.73
2023-02-15T01:30:38.056Z,83.65
2023-02-15T01:33:04.620Z,83.45
2023-02-15T01:35:31.240Z,83.71
2023-02-15T01:37:57.921Z,83.57
2023-02-15T01:40:25.282Z,83.83
2023-02-15T01:42:53.406Z,83.92
2023-02-15T01:45:19.828Z,83.92
2023-02-15T01:47:51.625Z,83.82
2023-02-15T01:50:30.781Z,83.92
2023-02-15T01:53:13.204Z,83.98
2023-02-15T01:55:50.606Z,83.96
2023-02-15T01:58:17.760Z,83.89
2023-02-15T02:00:45.444Z,84.06
2023-02-15T02:03:12.977Z,83.87
2023-02-15T02:05:40.399Z,83.61
2023-02-15T02:08:10.620Z,83.91
2023-02-15T02:10:37.541Z,84.16
2023-02-15T02:13:06.839Z,84.10
2023-02-15T02:15:47.595Z,84.13
2023-02-15T02:18:13.990Z,83.78
2023-02-15T02:21:06.720Z,84.13
2023-02-15T02:23:39.265Z,83.99
2023-02-15T02:26:42.117Z,84.17
2023-02-15T02:29:20.577Z,84.04
2023-02-15T02:32:33.909Z,83.95
2023-02-15T02:35:23.238Z,83.96
2023-02-15T02:38:04.347Z,84.47
2023-02-15T02:40:43.115Z,84.03
2023-02-15T02:43:25.685Z,84.19
2023-02-15T02:46:12.690Z,84.11
2023-02-15T02:48:39.840Z,84.35
2023-02-15T02:51:06.197Z,84.18
2023-02-15T02:53:34.715Z,84.25
2023-02-15T02:56:12.694Z,84.24
2023-02-15T02:58:41.989Z,84.43
2023-02-15T03:01:19.378Z,84.32
2023-02-15T03:03:50.724Z,84.57
2023-02-15T03:06:29.789Z,84.29
2023-02-15T03:09:02.382Z,84.24
2023-02-15T03:11:28.886Z,84.32
2023-02-15T03:13:55.355Z,84.50
2023-02-15T03:16:28.841Z,84.41
2023-02-15T03:19:01.994Z,84.44
2023-02-15T03:21:58.538Z,84.51
2023-02-15T03:24:29.318Z,84.46
2023-02-15T03:26:57.241Z,84.38
2023-02-15T03:29:27.362Z,84.56
2023-02-15T03:32:03.582Z,84.52
2023-02-15T03:34:30.543Z,84.47
2023-02-15T03:37:26.510Z,84.41
2023-02-15T03:40:39.165Z,84.41
2023-02-15T03:43:15.534Z,84.34
2023-02-15T03:45:55.686Z,84.23
2023-02-15T03:48:26.525Z,84.39
2023-02-15T03:51:16.757Z,84.64
2023-02-15T03:53:45.467Z,84.50
2023-02-15T03:56:11.871Z,84.47
2023-02-15T03:58:57.069Z,84.50
2023-02-15T04:01:46.954Z,84.66
2023-02-15T04:04:25.501Z,84.33
2023-02-15T04:06:52.070Z,83.95
2023-02-15T04:09:37.953Z,84.18
2023-02-15T04:12:04.841Z,84.28
2023-02-15T04:14:50.016Z,83.69
2023-02-15T04:17:16.508Z,84.51
2023-02-15T04:20:01.640Z,84.74
2023-02-15T04:22:46.561Z,84.77
2023-02-15T04:25:15.724Z,84.63
2023-02-15T04:27:45.504Z,85.01
2023-02-15T04:30:13.841Z,84.92
2023-02-15T04:32:40.712Z,84.88
2023-02-15T04:35:08.019Z,84.91
2023-02-15T04:37:34.685Z,84.76
2023-02-15T04:40:01.099Z,84.85
2023-02-15T04:42:28.126Z,84.47
2023-02-15T04:44:55.210Z,84.92
2023-02-15T04:47:22.113Z,85.13
2023-02-15T04:49:48.595Z,84.93
2023-02-15T04:52:15.035Z,85.36
2023-02-15T04:54:41.608Z,85.30
2023-02-15T04:57:08.117Z,85.26
2023-02-15T04:59:34.759Z,85.07
2023-02-15T05:02:01.146Z,85.11
2023-02-15T05:04:27.631Z,84.79
2023-02-15T05:06:54.135Z,84.90
2023-02-15T05:09:20.610Z,84.81
2023-02-15T05:11:47.130Z,85.13
2023-02-15T05:14:13.649Z,85.07
2023-02-15T05:16:40.484Z,85.08
2023-02-15T05:19:08.175Z,84.79
2023-02-15T05:21:35.042Z,85.06
2023-02-15T05:24:01.510Z,85.60
2023-02-15T05:26:46.317Z,85.18
2023-02-15T05:29:12.739Z,85.21
2023-02-15T05:31:39.463Z,85.08
2023-02-15T05:34:06.082Z,84.86
2023-02-15T05:36:32.544Z,85.31
2023-02-15T05:38:58.954Z,84.94
2023-02-15T05:41:26.491Z,85.22
2023-02-15T05:43:52.888Z,84.81
2023-02-15T05:46:19.336Z,84.96
2023-02-15T05:48:45.789Z,84.88
2023-02-15T05:51:14.975Z,85.08
2023-02-15T05:53:41.663Z,85.51
2023-02-15T05:56:10.922Z,84.99
2023-02-15T05:58:39.536Z,85.27
2023-02-15T06:01:18.223Z,85.06
2023-02-15T06:03:45.797Z,85.22
2023-02-15T06:06:12.328Z,85.03
2023-02-15T06:08:39.361Z,85.24
2023-02-15T06:11:06.413Z,85.28
2023-02-15T06:13:34.148Z,84.77
2023-02-15T06:16:02.625Z,84.71
2023-02-15T06:18:30.031Z,85.43
2023-02-15T06:20:56.511Z,85.39
2023-02-15T06:23:22.938Z,85.69
2023-02-15T06:25:49.435Z,85.39
2023-02-15T06:28:15.818Z,85.62
2023-02-15T06:30:42.373Z,85.27
2023-02-15T06:33:08.826Z,85.43
2023-02-15T06:35:35.503Z,85.17
2023-02-15T06:38:02.035Z,85.58
2023-02-15T06:40:28.489Z,85.52
2023-02-15T06:42:54.942Z,85.28
2023-02-15T06:45:21.726Z,85.45
2023-02-15T06:47:48.219Z,85.09
2023-02-15T06:50:14.912Z,85.08
2023-02-15T06:52:41.416Z,85.29
2023-02-15T06:55:08.176Z,85.10
2023-02-15T06:57:34.739Z,85.34
2023-02-15T07:00:01.462Z,85.25
2023-02-15T07:02:27.942Z,85.24
2023-02-15T07:04:54.365Z,85.22
2023-02-15T07:07:21.073Z,85.61
2023-02-15T07:09:47.497Z,85.20
2023-02-15T07:12:32.606Z,85.39
2023-02-15T07:14:59.282Z,85.26
2023-02-15T07:17:36.913Z,85.06
2023-02-15T07:20:06.029Z,85.21
2023-02-15T07:22:35.042Z,85.31
2023-02-15T07:25:01.837Z,85.47
2023-02-15T07:27:28.257Z,85.31
2023-02-15T07:29:56.611Z,85.20
2023-02-15T07:32:23.147Z,84.82
2023-02-15T07:34:49.725Z,84.75
2023-02-15T07:37:16.178Z,84.86
2023-02-15T07:39:42.776Z,85.04
2023-02-15T07:42:09.153Z,85.13
2023-02-15T07:44:35.585Z,84.79
2023-02-15T07:47:02.129Z,85.31
2023-02-15T07:49:28.980Z,85.02
2023-02-15T07:51:55.412Z,85.24
2023-02-15T07:54:21.784Z,84.82
2023-02-15T07:56:48.291Z,85.32
2023-02-15T07:59:14.846Z,85.18
2023-02-15T08:01:41.257Z,85.08
2023-02-15T08:04:10.296Z,85.35
2023-02-15T08:06:37.748Z,84.71
2023-02-15T08:09:07.599Z,84.78
2023-02-15T08:11:40.782Z,85.13
2023-02-15T08:14:10.473Z,85.36
2023-02-15T08:16:41.380Z,84.83
2023-02-15T08:19:20.008Z,84.81
2023-02-15T08:22:00.178Z,84.76
2023-02-15T08:24:31.435Z,84.47
2023-02-15T08:26:59.250Z,84.38
2023-02-15T08:29:28.043Z,84.90
2023-02-15T08:31:59.791Z,85.27
2023-02-15T08:34:26.348Z,85.00
2023-02-15T08:36:52.791Z,84.95
2023-02-15T08:39:19.217Z,84.95
2023-02-15T08:41:49.668Z,85.01
2023-02-15T08:44:20.642Z,85.24
2023-02-15T08:46:49.817Z,84.80
2023-02-15T08:49:21.290Z,84.51
2023-02-15T08:51:49.435Z,84.93
2023-02-15T08:54:19.526Z,84.95
2023-02-15T08:56:46.880Z,85.15
2023-02-15T08:59:17.213Z,85.04
2023-02-15T09:01:44.395Z,84.80
2023-02-15T09:04:11.056Z,84.74
2023-02-15T09:06:39.141Z,84.77
2023-02-15T09:09:07.070Z,84.52
2023-02-15T09:11:39.461Z,84.55
2023-02-15T09:14:10.511Z,84.66
2023-02-15T09:16:38.852Z,84.13
2023-02-15T09:19:06.784Z,83.71
2023-02-15T09:21:35.930Z,83.79
2023-02-15T09:24:05.630Z,84.20
2023-02-15T09:26:33.557Z,84.80
2023-02-15T09:29:02.068Z,84.05
2023-02-15T09:31:31.040Z,84.24
2023-02-15T09:33:58.884Z,84.32
2023-02-15T09:36:34.410Z,84.25
2023-02-15T09:39:09.969Z,83.82
2023-02-15T09:42:17.533Z,84.63
2023-02-15T09:44:50.253Z,84.34
2023-02-15T09:47:53.937Z,83.89
2023-02-15T09:50:28.109Z,84.12
2023-02-15T09:53:18.487Z,84.35
2023-02-15T09:56:21.196Z,83.86
2023-02-15T09:59:10.295Z,84.03
2023-02-15T10:01:57.940Z,84.04
2023-02-15T10:04:36.298Z,83.21
2023-02-15T10:07:25.485Z,83.11
2023-02-15T10:09:54.903Z,83.14
2023-02-15T10:12:39.475Z,83.08
2023-02-15T10:15:27.388Z,83.15
2023-02-15T10:18:21.753Z,83.31
2023-02-15T10:20:58.731Z,83.14
2023-02-15T10:23:47.608Z,82.71
2023-02-15T10:26:23.692Z,82.58
2023-02-15T10:28:53.476Z,82.19
2023-02-15T10:31:35.788Z,81.98
2023-02-15T10:34:19.943Z,82.07
2023-02-15T10:37:05.233Z,81.84
2023-02-15T10:39:34.610Z,81.73
2023-02-15T10:42:27.464Z,81.64
2023-02-15T10:45:24.813Z,81.55
2023-02-15T10:48:05.614Z,81.09
2023-02-15T10:50:52.496Z,80.93
2023-02-15T10:53:40.709Z,80.71
2023-02-15T10:56:20.645Z,80.55
2023-02-15T10:59:16.653Z,80.23
2023-02-15T11:01:56.559Z,80.23
2023-02-15T11:04:44.937Z,80.46
2023-02-15T11:07:21.109Z,80.24
2023-02-15T11:09:55.636Z,80.33
2023-02-15T11:12:25.931Z,80.28
2023-02-15T11:15:04.587Z,80.33
2023-02-15T11:17:42.672Z,80.21
2023-02-15T11:20:21.021Z,79.75
2023-02-15T11:22:54.153Z,79.87
2023-02-15T11:25:29.653Z,79.68
2023-02-15T11:27:56.985Z,79.49
2023-02-15T11:30:26.918Z,79.59
2023-02-15T11:32:57.310Z,79.30
2023-02-15T11:35:27.468Z,79.19
2023-02-15T11:38:11.044Z,78.94
2023-02-15T11:41:09.775Z,78.67
2023-02-15T11:43:44.424Z,78.90
2023-02-15T11:46:13.673Z,78.59
2023-02-15T11:48:40.590Z,78.33
2023-02-15T11:51:09.741Z,78.33
2023-02-15T11:53:38.735Z,77.84
2023-02-15T11:56:06.970Z,77.96
2023-02-15T11:58:48.997Z,77.71
2023-02-15T12:01:26.010Z,77.44
2023-02-15T12:03:56.358Z,77.24
2023-02-15T12:06:30.248Z,77.25
2023-02-15T12:09:23.581Z,76.93
2023-02-15T12:11:50.244Z,76.43
2023-02-15T12:14:16.764Z,76.24
2023-02-15T12:16:49.773Z,76.39
2023-02-15T12:19:38.284Z,76.30
2023-02-15T12:22:07.605Z,76.20
2023-02-15T12:24:38.922Z,75.83
2023-02-15T12:27:25.657Z,75.48
2023-02-15T12:30:44.850Z,75.13
2023-02-15T12:33:29.281Z,75.47
2023-02-15T12:36:04.941Z,75.33
2023-02-15T12:38:32.727Z,75.33
2023-02-15T12:41:02.654Z,75.42
2023-02-15T12:43:39.435Z,74.83
2023-02-15T12:46:25.314Z,74.95
2023-02-15T12:49:10.109Z,74.70
2023-02-15T12:52:01.420Z,74.48
2023-02-15T12:54:42.977Z,74.67
2023-02-15T12:57:21.475Z,74.02
2023-02-15T12:59:52.494Z,73.23
2023-02-15T13:02:37.702Z,73.29
2023-02-15T13:05:38.094Z,73.55
2023-02-15T13:08:26.685Z,73.52
2023-02-15T13:10:56.936Z,72.75
2023-02-15T13:13:26.815Z,72.99
2023-02-15T13:15:56.875Z,72.30
2023-02-15T13:18:39.106Z,72.44
2023-02-15T13:21:15.281Z,72.06
2023-02-15T13:23:46.916Z,72.07
2023-02-15T13:26:19.502Z,72.28
2023-02-15T13:28:49.520Z,71.58
2023-02-15T13:31:20.382Z,71.45
2023-02-15T13:33:59.458Z,71.47
2023-02-15T13:36:42.967Z,71.27
2023-02-15T13:39:17.144Z,71.18
2023-02-15T13:42:06.871Z,71.61
2023-02-15T13:44:48.470Z,71.33
2023-02-15T13:47:38.109Z,71.54
2023-02-15T13:50:13.595Z,71.37
2023-02-15T13:53:07.420Z,70.59
2023-02-15T13:55:50.868Z,70.74
2023-02-15T13:58:20.212Z,71.24
2023-02-15T14:00:53.902Z,70.21
2023-02-15T14:03:37.751Z,70.13
2023-02-15T14:06:17.851Z,70.03
2023-02-15T14:09:07.085Z,70.22
2023-02-15T14:11:36.458Z,69.96
2023-02-15T14:14:41.581Z,70.15
2023-02-15T14:17:27.538Z,69.52
2023-02-15T14:20:02.879Z,70.08
2023-02-15T14:22:40.508Z,70.39
2023-02-15T14:25:19.201Z,70.25
2023-02-15T14:28:01.818Z,70.24
2023-02-15T14:30:33.961Z,71.05
2023-02-15T14:33:25.393Z,70.47
2023-02-15T14:35:52.358Z,70.44
2023-02-15T14:38:18.823Z,70.14
2023-02-15T14:41:05.705Z,70.27
2023-02-15T14:43:47.675Z,70.43
2023-02-15T14:46:31.352Z,70.66
2023-02-15T14:49:13.340Z,70.32
2023-02-15T14:51:48.547Z,70.72
2023-02-15T14:54:18.255Z,69.84
2023-02-15T14:56:46.350Z,70.13
2023-02-15T14:59:12.720Z,70.23
2023-02-15T15:01:40.472Z,69.83
2023-02-15T15:04:24.824Z,70.60
2023-02-15T15:07:03.063Z,70.61
2023-02-15T15:09:33.019Z,69.92
2023-02-15T15:12:24.410Z,69.46
2023-02-15T15:14:53.226Z,70.10
2023-02-15T15:18:00.927Z,69.75
2023-02-15T15:20:27.982Z,69.82
2023-02-15T15:23:17.849Z,69.58
2023-02-15T15:26:23.094Z,69.66
2023-02-15T15:28:49.411Z,69.60
2023-02-15T15:31:33.863Z,70.00
2023-02-15T15:34:00.269Z,69.49
2023-02-15T15:36:51.199Z,69.45
2023-02-15T15:39:49.860Z,69.69
2023-02-15T15:42:43.725Z,69.71
2023-02-15T15:45:13.098Z,70.41
2023-02-15T15:48:07.483Z,69.94
2023-02-15T15:50:35.191Z,69.41
2023-02-15T15:53:03.338Z,69.64
2023-02-15T15:55:33.012Z,70.15
2023-02-15T15:58:05.974Z,70.07
2023-02-15T16:00:42.583Z,69.98
2023-02-15T16:03:17.436Z,70.16
2023-02-15T16:05:43.842Z,70.48
2023-02-15T16:08:10.185Z,70.60
2023-02-15T16:10:38.720Z,70.53
2023-02-15T16:13:07.885Z,70.70
2023-02-15T16:15:42.870Z,70.49
2023-02-15T16:18:16.148Z,71.06
2023-02-15T16:20:50.750Z,71.04
2023-02-15T16:23:22.839Z,71.17
2023-02-15T16:26:24.195Z,71.54
2023-02-15T16:28:52.719Z,71.56
2023-02-15T16:31:20.036Z,71.92
2023-02-15T16:33:47.418Z,71.63
2023-02-15T16:36:24.911Z,71.68
2023-02-15T16:38:51.246Z,71.82
2023-02-15T16:41:23.466Z,71.86
2023-02-15T16:43:52.627Z,72.34
2023-02-15T16:46:35.830Z,72.47
2023-02-15T16:49:07.971Z,72.66
2023-02-15T16:51:36.255Z,72.79
2023-02-15T16:54:15.874Z,72.73
2023-02-15T16:56:46.904Z,72.59
2023-02-15T16:59:36.558Z,73.00
2023-02-15T17:02:40.091Z,73.47
2023-02-15T17:05:18.434Z,73.38
2023-02-15T17:07:59.946Z,73.26
2023-02-15T17:10:30.813Z,73.51
2023-02-15T17:13:03.683Z,73.71
2023-02-15T17:15:39.454Z,73.76
2023-02-15T17:18:12.387Z,73.68
2023-02-15T17:20:42.702Z,73.79
2023-02-15T17:23:29.149Z,73.88
2023-02-15T17:25:56.353Z,74.05
2023-02-15T17:28:26.117Z,74.14
2023-02-15T17:30:54.643Z,74.50
2023-02-15T17:33:40.807Z,74.54
2023-02-15T17:36:25.260Z,74.51
2023-02-15T17:38:57.917Z,74.80
2023-02-15T17:41:24.999Z,75.17
2023-02-15T17:43:51.476Z,75.01
2023-02-15T17:46:19.715Z,75.26
2023-02-15T17:48:49.141Z,75.25
2023-02-15T17:51:16.697Z,75.30
2023-02-15T17:54:02.903Z,75.70
2023-02-15T17:56:29.310Z,75.81
2023-02-15T17:58:55.832Z,75.81
2023-02-15T18:01:41.344Z,75.59
2023-02-15T18:04:31.752Z,76.02
2023-02-15T18:07:17.545Z,76.07
2023-02-15T18:10:03.961Z,76.28
2023-02-15T18:12:37.814Z,76.21
2023-02-15T18:15:06.196Z,75.98
2023-02-15T18:17:42.713Z,76.55
2023-02-15T18:20:24.378Z,76.47
2023-02-15T18:22:51.850Z,76.57
2023-02-15T18:25:20.941Z,76.68
2023-02-15T18:27:47.498Z,76.96
2023-02-15T18:30:15.990Z,76.96
2023-02-15T18:32:43.449Z,76.93
2023-02-15T18:35:17.989Z,76.83
2023-02-15T18:37:45.136Z,76.90
2023-02-15T18:40:16.943Z,77.20
2023-02-15T18:42:47.747Z,77.31
2023-02-15T18:45:20.961Z,77.29
2023-02-15T18:47:48.584Z,77.45
2023-02-15T18:50:17.592Z,77.21
2023-02-15T18:52:47.193Z,77.50
2023-02-15T18:55:16.657Z,77.69
2023-02-15T18:57:45.993Z,77.59
2023-02-15T19:00:21.855Z,77.74
2023-02-15T19:02:48.801Z,77.73
2023-02-15T19:05:16.141Z,77.65
2023-02-15T19:07:45.309Z,77.78
2023-02-15T19:10:17.448Z,77.57
2023-02-15T19:12:44.852Z,78.03
2023-02-15T19:15:16.569Z,77.91
2023-02-15T19:17:43.104Z,78.17
2023-02-15T19:20:22.540Z,77.90
2023-02-15T19:22:51.058Z,78.07
2023-02-15T19:25:22.019Z,77.95
2023-02-15T19:27:48.660Z,78.35
2023-02-15T19:30:28.612Z,78.27
2023-02-15T19:32:55.884Z,78.32
2023-02-15T19:35:26.108Z,78.45
2023-02-15T19:37:55.051Z,78.48
2023-02-15T19:40:26.896Z,78.65
2023-02-15T19:42:53.749Z,78.63
2023-02-15T19:45:22.651Z,78.75
2023-02-15T19:47:49.922Z,78.61
2023-02-15T19:50:21.376Z,78.75
2023-02-15T19:52:48.345Z,78.58
2023-02-15T19:55:28.938Z,79.02
2023-02-15T19:57:57.145Z,79.06
2023-02-15T20:00:28.674Z,78.81
2023-02-15T20:02:55.970Z,79.03
2023-02-15T20:05:22.819Z,79.08
2023-02-15T20:07:52.824Z,78.91
2023-02-15T20:10:21.941Z,79.10
2023-02-15T20:12:48.722Z,79.17
2023-02-15T20:15:18.028Z,79.22
2023-02-15T20:17:44.475Z,79.22
2023-02-15T20:20:13.162Z,79.28
2023-02-15T20:22:42.339Z,79.33
2023-02-15T20:25:18.950Z,79.42
2023-02-15T20:27:45.450Z,79.65
2023-02-15T20:30:20.154Z,79.31
2023-02-15T20:32:47.974Z,79.61
2023-02-15T20:35:17.724Z,79.70
2023-02-15T20:37:54.746Z,79.66
2023-02-15T20:40:24.387Z,79.57
2023-02-15T20:42:51.265Z,79.76
2023-02-15T20:45:30.120Z,79.73
2023-02-15T20:47:57.161Z,79.76
2023-02-15T20:50:30.418Z,79.77
2023-02-15T20:52:59.211Z,80.03
2023-02-15T20:55:30.417Z,80.13
2023-02-15T20:57:58.166Z,79.98
2023-02-15T21:00:28.157Z,79.89
2023-02-15T21:02:58.061Z,80.08
2023-02-15T21:05:27.478Z,79.99
2023-02-15T21:07:54.342Z,80.19
2023-02-15T21:10:27.063Z,80.06
2023-02-15T21:12:54.278Z,80.37
2023-02-15T21:15:29.872Z,80.25
2023-02-15T21:17:58.263Z,80.31
2023-02-15T21:20:26.213Z,80.34
2023-02-15T21:22:52.814Z,80.55
2023-02-15T21:25:26.792Z,80.45
2023-02-15T21:27:53.539Z,80.17
2023-02-15T21:30:21.923Z,80.23
2023-02-15T21:32:48.662Z,80.31
2023-02-15T21:35:16.875Z,80.44
2023-02-15T21:37:44.875Z,80.63
2023-02-15T21:40:14.036Z,80.74
2023-02-15T21:42:59.306Z,80.70
2023-02-15T21:45:44.115Z,80.68
2023-02-15T21:48:10.559Z,80.65
2023-02-15T21:50:56.641Z,80.68
2023-02-15T21:53:46.062Z,80.74
2023-02-15T21:56:16.730Z,80.83
2023-02-15T21:58:43.568Z,80.92
2023-02-15T22:01:25.500Z,80.87
2023-02-15T22:03:53.734Z,80.96
2023-02-15T22:06:20.614Z,81.09
2023-02-15T22:08:50.545Z,81.03
2023-02-15T22:11:20.877Z,81.00
2023-02-15T22:13:49.102Z,81.15
2023-02-15T22:16:20.913Z,81.06
2023-02-15T22:18:48.061Z,81.21
2023-02-15T22:21:19.184Z,81.17
2023-02-15T22:23:47.203Z,80.99
2023-02-15T22:26:25.212Z,81.31
2023-02-15T22:28:53.017Z,81.44
2023-02-15T22:31:21.896Z,81.22
2023-02-15T22:33:49.951Z,81.34
2023-02-15T22:36:29.066Z,81.33
2023-02-15T22:38:56.862Z,81.22
2023-02-15T22:41:31.120Z,81.18
2023-02-15T22:43:57.978Z,81.42
2023-02-15T22:46:25.609Z,81.52
2023-02-15T22:48:52.151Z,81.53
2023-02-15T22:51:24.255Z,81.55
2023-02-15T22:53:54.407Z,81.51
2023-02-15T22:56:51.741Z,81.86
2023-02-15T22:59:28.818Z,81.86
2023-02-15T23:01:56.715Z,81.65
2023-02-15T23:04:26.425Z,81.60
2023-02-15T23:06:53.419Z,81.80
2023-02-15T23:09:19.981Z,81.78
2023-02-15T23:11:47.325Z,82.06
2023-02-15T23:14:34.738Z,81.89
2023-02-15T23:17:01.752Z,81.76
2023-02-15T23:19:28.778Z,81.89
2023-02-15T23:21:55.273Z,81.77
2023-02-15T23:24:26.192Z,81.96
2023-02-15T23:26:52.981Z,81.93
2023-02-15T23:29:23.027Z,82.15
2023-02-15T23:31:54.041Z,81.92
2023-02-15T23:34:31.921Z,82.24
2023-02-15T23:36:58.317Z,81.98
2023-02-15T23:39:45.797Z,82.41
2023-02-15T23:42:21.368Z,82.12
2023-02-15T23:44:48.693Z,82.00
2023-02-15T23:47:56.419Z,82.25
2023-02-15T23:50:27.880Z,82.09
2023-02-15T23:52:55.044Z,82.18
2023-02-15T23:55:22.084Z,82.34
2023-02-15T23:57:49.428Z,82.24
